Time;durP1;ratioP1;P1;durP2;ratioP2;P2;SDS_P1;SDS_P2;PMS_P1;PMS_P2;Temp;Humidity;BMP_temperature;BMP_pressure;BME280_temperature;BME280_humidity;BME280_pressure;Samples;Min_cycle;Max_cycle;Signal;HPM_P1;HPM_P2
2023/01/14 00:01:47;;;;;;;108.28;57.67;;;0.40;84.40;;;;;;5072181;28;20102;-12
2023/01/14 00:04:12;;;;;;;99.13;57.45;;;0.30;84.40;;;;;;5070475;28;20392;-13
2023/01/14 00:06:39;;;;;;;105.50;60.38;;;0.30;84.40;;;;;;5074965;28;20032;-13
2023/01/14 00:09:07;;;;;;;95.05;55.75;;;0.30;84.40;;;;;;5075369;28;20028;-12
2023/01/14 00:14:54;;;;;;;107.40;58.28;;;0.30;84.60;;;;;;5075370;28;20086;-14
2023/01/14 00:17:20;;;;;;;100.10;56.50;;;0.30;84.60;;;;;;5075382;28;20056;-13
2023/01/14 00:19:46;;;;;;;108.68;60.30;;;0.20;84.60;;;;;;5075559;28;20052;-12
2023/01/14 00:22:12;;;;;;;95.65;52.42;;;0.20;84.70;;;;;;5075138;28;20497;-12
2023/01/14 00:24:38;;;;;;;86.45;48.30;;;0.20;84.70;;;;;;5075408;28;20028;-13
2023/01/14 00:27:03;;;;;;;99.90;57.40;;;0.20;84.60;;;;;;5075244;28;20021;-13
2023/01/14 00:29:31;;;;;;;90.35;51.25;;;0.20;84.70;;;;;;5075482;28;20484;-13
2023/01/14 00:32:03;;;;;;;74.22;41.25;;;0.20;84.70;;;;;;5074971;28;20033;-13
2023/01/14 00:34:30;;;;;;;80.03;44.50;;;0.20;84.70;;;;;;5075134;28;20438;-13
2023/01/14 00:36:57;;;;;;;104.22;57.40;;;0.30;84.70;;;;;;5074949;28;20024;-12
2023/01/14 00:39:24;;;;;;;94.85;52.60;;;0.30;84.70;;;;;;5075307;28;20094;-14
2023/01/14 00:41:50;;;;;;;86.25;50.15;;;0.20;84.70;;;;;;5074952;28;20032;-12
2023/01/14 00:44:19;;;;;;;102.45;57.00;;;0.30;84.70;;;;;;5075188;28;20033;-14
2023/01/14 00:46:45;;;;;;;85.03;46.47;;;0.30;84.60;;;;;;5075091;28;20074;-12
2023/01/14 00:49:18;;;;;;;99.03;53.72;;;0.20;84.70;;;;;;5073606;28;20046;-12
2023/01/14 00:51:44;;;;;;;65.55;37.67;;;0.20;84.60;;;;;;5074710;28;20028;-13
2023/01/14 00:54:10;;;;;;;83.70;46.60;;;0.10;84.50;;;;;;5073506;28;20017;-14
2023/01/14 00:56:36;;;;;;;76.57;41.42;;;0.00;84.50;;;;;;5074838;28;20021;-13
2023/01/14 00:59:01;;;;;;;68.00;39.83;;;0.00;84.60;;;;;;5074328;28;20027;-12
2023/01/14 01:01:27;;;;;;;92.32;48.70;;;0.00;84.70;;;;;;5074698;28;20032;-12
2023/01/14 01:03:55;;;;;;;86.43;47.17;;;0.00;84.70;;;;;;5074575;28;20017;-12
2023/01/14 01:06:24;;;;;;;83.15;45.90;;;0.00;84.80;;;;;;5074667;28;20021;-13
2023/01/14 01:08:50;;;;;;;66.38;38.55;;;0.00;84.90;;;;;;5074559;28;20024;-12
2023/01/14 01:11:17;;;;;;;96.72;53.25;;;0.00;84.90;;;;;;5074379;28;20036;-12
2023/01/14 01:13:43;;;;;;;80.30;44.67;;;0.00;84.80;;;;;;5074664;28;20021;-13
2023/01/14 01:16:14;;;;;;;71.22;40.03;;;0.00;84.90;;;;;;5073699;28;20032;-13
2023/01/14 01:18:42;;;;;;;92.40;47.92;;;0.00;84.80;;;;;;5073904;28;20469;-13
2023/01/14 01:21:14;;;;;;;80.55;43.72;;;0.00;84.90;;;;;;5074058;28;20404;-13
2023/01/14 01:23:41;;;;;;;96.13;50.28;;;0.00;84.80;;;;;;5074576;28;20090;-13
2023/01/14 01:26:11;;;;;;;96.63;51.33;;;0.00;84.80;;;;;;5074179;28;20028;-13
2023/01/14 01:28:37;;;;;;;84.85;45.80;;;0.00;84.80;;;;;;5074121;28;20042;-12
2023/01/14 01:31:07;;;;;;;71.15;39.00;;;0.00;84.90;;;;;;5072546;28;20036;-13
2023/01/14 01:33:34;;;;;;;85.55;47.13;;;0.00;84.90;;;;;;5073795;28;20158;-13
2023/01/14 01:36:05;;;;;;;72.60;39.17;;;-0.10;84.80;;;;;;5073839;28;20031;-13
2023/01/14 01:38:32;;;;;;;89.80;52.17;;;-0.10;84.70;;;;;;5074182;28;20036;-12
2023/01/14 01:40:58;;;;;;;92.10;50.63;;;-0.10;84.70;;;;;;5073559;28;20028;-12
2023/01/14 01:43:27;;;;;;;98.00;54.45;;;-0.20;84.70;;;;;;5073979;28;20031;-12
2023/01/14 01:45:53;;;;;;;61.67;34.53;;;-0.20;84.70;;;;;;5073955;28;20044;-12
2023/01/14 01:48:32;;;;;;;75.15;41.92;;;-0.20;84.80;;;;;;5073923;28;20028;-12
2023/01/14 01:51:11;;;;;;;68.68;39.25;;;-0.20;84.90;;;;;;5073416;28;20024;-11
2023/01/14 01:53:41;;;;;;;75.13;39.17;;;-0.20;85.00;;;;;;5073623;28;20020;-12
2023/01/14 01:56:14;;;;;;;79.88;43.83;;;-0.20;85.00;;;;;;5073506;28;20535;-11
2023/01/14 01:58:41;;;;;;;71.68;40.50;;;-0.30;84.90;;;;;;5073810;28;20450;-12
2023/01/14 02:01:07;;;;;;;87.03;48.53;;;-0.30;84.90;;;;;;5073226;28;20485;-13
2023/01/14 02:03:41;;;;;;;83.72;46.28;;;-0.30;84.90;;;;;;5073301;28;20040;-13
2023/01/14 02:06:08;;;;;;;79.38;44.92;;;-0.30;84.80;;;;;;5073539;28;20086;-11
2023/01/14 02:08:38;;;;;;;86.80;48.83;;;-0.30;84.90;;;;;;5073505;28;20107;-11
2023/01/14 02:11:32;;;;;;;93.70;51.00;;;-0.30;84.90;;;;;;5073463;28;20020;-11
2023/01/14 02:14:04;;;;;;;;;;;-0.30;85.00;;;;;;5073931;28;20029;-11
2023/01/14 02:16:57;;;;;;;82.50;45.47;;;-0.30;85.00;;;;;;5073397;28;20320;-12
2023/01/14 02:19:44;;;;;;;90.00;47.63;;;-0.40;85.00;;;;;;5073218;28;20032;-13
2023/01/14 02:22:10;;;;;;;96.70;52.40;;;-0.40;85.10;;;;;;5073008;28;20052;-12
2023/01/14 02:24:47;;;;;;;79.95;45.08;;;-0.30;85.10;;;;;;5072905;28;20055;-12
2023/01/14 02:27:34;;;;;;;96.90;53.60;;;-0.40;85.10;;;;;;5072926;28;20036;-13
2023/01/14 02:30:08;;;;;;;79.57;43.25;;;-0.30;85.10;;;;;;5073224;28;20032;-12
2023/01/14 02:32:50;;;;;;;92.00;51.63;;;-0.30;85.20;;;;;;5073147;28;20044;-13
2023/01/14 02:35:40;;;;;;;99.30;53.50;;;-0.30;85.10;;;;;;5072928;28;20476;-12
2023/01/14 02:38:25;;;;;;;90.57;50.67;;;-0.40;85.10;;;;;;5072778;28;20031;-12
2023/01/14 02:40:55;;;;;;;57.58;33.38;;;-0.40;85.00;;;;;;5073063;28;20021;-13
2023/01/14 02:46:44;;;;;;;74.63;41.42;;;-0.40;85.10;;;;;;5072877;28;20036;-12
2023/01/14 02:49:16;;;;;;;66.03;36.60;;;-0.40;85.10;;;;;;5050200;28;20035;-12
2023/01/14 02:51:43;;;;;;;57.75;34.38;;;-0.40;85.10;;;;;;5051019;28;20071;-12
2023/01/14 02:54:11;;;;;;;90.00;49.28;;;-0.40;85.10;;;;;;5050570;28;20033;-12
2023/01/14 02:56:38;;;;;;;85.72;46.22;;;-0.40;85.10;;;;;;5050394;28;20028;-13
2023/01/14 02:59:38;;;;;;;70.93;40.97;;;-0.40;85.00;;;;;;5050284;28;20035;-13
2023/01/14 03:02:13;;;;;;;91.90;48.88;;;-0.50;84.90;;;;;;5033731;28;20031;-12
2023/01/14 03:04:46;;;;;;;78.38;42.28;;;-0.50;85.00;;;;;;5033643;28;20055;-13
2023/01/14 03:07:16;;;;;;;76.53;42.80;;;-0.50;85.10;;;;;;5050304;28;20037;-14
2023/01/14 03:10:06;;;;;;;54.08;32.72;;;-0.40;85.00;;;;;;5050449;28;20029;-13
2023/01/14 03:12:46;;;;;;;80.40;43.42;;;-0.50;85.00;;;;;;5050363;28;20122;-14
2023/01/14 03:15:26;;;;;;;80.15;42.85;;;-0.50;85.00;;;;;;5033607;28;20389;-13
2023/01/14 03:18:22;;;;;;;85.97;47.55;;;-0.50;85.10;;;;;;5050148;28;20029;-13
2023/01/14 03:21:18;;;;;;;84.30;45.60;;;-0.50;85.10;;;;;;5049840;28;20048;-12
2023/01/14 03:23:56;;;;;;;66.70;38.45;;;-0.50;85.00;;;;;;5049023;28;20049;-12
2023/01/14 03:26:24;;;;;;;77.93;40.28;;;-0.50;85.00;;;;;;5030896;28;20049;-12
2023/01/14 03:28:50;;;;;;;96.30;51.30;;;-0.50;85.00;;;;;;5032582;28;20053;-12
2023/01/14 03:31:25;;;;;;;61.05;35.25;;;-0.50;85.00;;;;;;5032618;28;20065;-13
2023/01/14 03:34:12;;;;;;;60.22;37.22;;;-0.50;85.00;;;;;;5032637;28;20029;-12
2023/01/14 03:36:40;;;;;;;84.13;46.55;;;-0.50;85.10;;;;;;5032461;28;20051;-13
2023/01/14 03:39:21;;;;;;;90.32;50.10;;;-0.50;85.20;;;;;;5032149;28;20025;-12
2023/01/14 03:44:45;;;;;;;65.35;36.95;;;-0.50;85.10;;;;;;5036474;28;20578;-13
2023/01/14 03:47:12;;;;;;;71.05;39.30;;;-0.50;85.00;;;;;;5036310;28;20026;-13
2023/01/14 03:49:38;;;;;;;63.20;36.70;;;-0.50;85.10;;;;;;5036200;28;20057;-13
2023/01/14 03:52:33;;;;;;;64.13;36.70;;;-0.50;85.10;;;;;;5036137;28;20021;-13
2023/01/14 03:55:16;;;;;;;76.45;41.03;;;-0.50;85.00;;;;;;5037174;28;20095;-12
2023/01/14 03:57:45;;;;;;;85.13;45.38;;;-0.50;85.00;;;;;;5036270;28;20021;-13
2023/01/14 04:00:24;;;;;;;73.43;42.67;;;-0.50;85.00;;;;;;5035810;28;20355;-12
2023/01/14 04:02:51;;;;;;;78.18;43.03;;;-0.50;84.90;;;;;;5035570;28;20033;-14
2023/01/14 04:05:17;;;;;;;64.30;35.85;;;-0.50;84.90;;;;;;5035541;28;20069;-13
2023/01/14 04:07:46;;;;;;;79.10;42.63;;;-0.50;85.00;;;;;;5034457;28;20056;-13
2023/01/14 04:10:12;;;;;;;54.88;31.27;;;-0.40;85.00;;;;;;5035660;28;20022;-13
2023/01/14 04:15:20;;;;;;;65.10;34.40;;;-0.40;84.90;;;;;;5035652;28;20021;-13
2023/01/14 04:15:23;;;;;;;57.85;32.85;;;-0.30;85.10;;;;;;5035999;28;20034;-12
2023/01/14 04:17:49;;;;;;;60.17;34.72;;;-0.20;85.10;;;;;;5035468;28;20041;-13
2023/01/14 04:20:15;;;;;;;57.53;32.65;;;-0.10;85.10;;;;;;5042801;28;20087;-13
2023/01/14 04:22:41;;;;;;;53.40;30.25;;;-0.10;84.90;;;;;;5075452;28;20033;-13
2023/01/14 04:25:07;;;;;;;46.17;27.23;;;0.00;84.70;;;;;;5074880;28;20029;-13
2023/01/14 04:27:33;;;;;;;48.03;29.35;;;0.00;84.50;;;;;;5075215;28;20590;-14
2023/01/14 04:29:58;;;;;;;40.72;22.95;;;-0.10;84.60;;;;;;5075951;28;20039;-12
2023/01/14 04:32:24;;;;;;;51.53;29.38;;;-0.10;84.50;;;;;;5074974;28;20024;-13
2023/01/14 04:34:50;;;;;;;55.20;31.52;;;0.00;84.30;;;;;;5075216;28;20024;-13
2023/01/14 04:37:16;;;;;;;66.95;34.67;;;0.00;84.20;;;;;;5075350;28;20427;-13
2023/01/14 04:39:42;;;;;;;57.10;31.67;;;0.00;84.10;;;;;;5075411;28;20025;-13
2023/01/14 04:42:27;;;;;;;47.05;27.00;;;0.00;84.00;;;;;;5075075;28;20029;-13
2023/01/14 04:44:54;;;;;;;51.75;28.10;;;-0.10;84.00;;;;;;5075112;28;20141;-13
2023/01/14 04:47:20;;;;;;;58.15;34.25;;;-0.20;84.00;;;;;;5075133;28;20025;-13
2023/01/14 04:49:46;;;;;;;52.75;30.10;;;-0.20;84.00;;;;;;5074992;28;20052;-13
2023/01/14 04:52:12;;;;;;;59.70;34.15;;;-0.40;83.90;;;;;;5073533;28;20035;-12
2023/01/14 04:54:38;;;;;;;53.83;30.38;;;-0.50;84.00;;;;;;5073493;28;20498;-13
2023/01/14 04:57:03;;;;;;;53.50;31.08;;;-0.50;84.00;;;;;;5074578;28;20036;-13
2023/01/14 04:59:30;;;;;;;55.92;33.45;;;-0.60;84.10;;;;;;5073331;28;20033;-13
2023/01/14 05:01:56;;;;;;;63.78;33.28;;;-0.60;84.20;;;;;;5074729;28;20500;-12
2023/01/14 05:04:21;;;;;;;58.22;31.00;;;-0.70;84.30;;;;;;5074816;28;20124;-13
2023/01/14 05:06:47;;;;;;;48.53;28.75;;;-0.70;84.30;;;;;;5074762;28;20451;-12
2023/01/14 05:09:14;;;;;;;37.83;23.55;;;-0.80;84.30;;;;;;5073203;28;20463;-13
2023/01/14 05:11:40;;;;;;;40.50;22.48;;;-0.80;84.50;;;;;;5074969;28;20043;-13
2023/01/14 05:14:05;;;;;;;49.33;27.63;;;-0.80;84.60;;;;;;5074428;28;20377;-13
2023/01/14 05:16:31;;;;;;;57.15;30.20;;;-0.70;84.60;;;;;;5074630;28;20078;-13
2023/01/14 05:18:57;;;;;;;51.55;29.05;;;-0.70;84.70;;;;;;5074139;28;20025;-11
2023/01/14 05:21:24;;;;;;;56.20;30.65;;;-0.70;84.60;;;;;;5073963;28;20045;-13
2023/01/14 05:23:50;;;;;;;51.90;29.23;;;-0.70;84.70;;;;;;5073998;28;20078;-14
2023/01/14 05:26:16;;;;;;;54.60;29.05;;;-0.70;84.80;;;;;;5074375;28;20082;-13
2023/01/14 05:28:42;;;;;;;54.55;30.85;;;-0.70;84.80;;;;;;5074154;28;20074;-13
2023/01/14 05:31:08;;;;;;;50.60;29.77;;;-0.70;84.80;;;;;;5073877;28;20020;-13
2023/01/14 05:33:34;;;;;;;55.15;29.67;;;-0.70;84.80;;;;;;5073825;28;20036;-13
2023/01/14 05:36:01;;;;;;;48.35;29.20;;;-0.70;84.70;;;;;;5074298;28;20021;-13
2023/01/14 05:38:27;;;;;;;54.28;29.67;;;-0.70;84.60;;;;;;5073995;28;20025;-13
2023/01/14 05:40:54;;;;;;;50.00;29.70;;;-0.60;84.70;;;;;;5073631;28;20115;-14
2023/01/14 05:46:08;;;;;;;35.78;22.08;;;-0.50;84.80;;;;;;5074128;28;20039;-13
2023/01/14 05:48:34;;;;;;;49.25;28.05;;;-0.50;84.70;;;;;;5073657;28;20449;-14
2023/01/14 05:51:02;;;;;;;81.35;35.85;;;-0.50;84.70;;;;;;5073803;28;20107;-13
2023/01/14 05:53:28;;;;;;;83.45;38.30;;;-0.50;84.60;;;;;;5072252;28;20027;-13
2023/01/14 05:55:56;;;;;;;59.63;29.88;;;-0.60;84.50;;;;;;5073614;28;20162;-13
2023/01/14 05:58:24;;;;;;;83.30;37.45;;;-0.50;84.60;;;;;;5073399;28;20027;-15
2023/01/14 06:06:21;;;;;;;;;;;-0.60;84.50;;;;;;5074054;28;20492;-13
2023/01/14 06:08:57;;;;;;;59.00;27.88;;;-0.60;84.60;;;;;;5073325;28;19911;-13
2023/01/14 06:11:25;;;;;;;56.85;28.55;;;-0.60;84.60;;;;;;5073501;28;20515;-12
2023/01/14 06:13:57;;;;;;;55.63;26.52;;;-0.60;84.60;;;;;;5073194;28;20499;-13
2023/01/14 06:16:28;;;;;;;60.38;28.70;;;-0.60;84.60;;;;;;5073592;28;20028;-14
2023/01/14 06:18:55;;;;;;;60.63;27.70;;;-0.60;84.60;;;;;;5073143;28;20024;-13
2023/01/14 06:21:29;;;;;;;71.85;33.22;;;-0.60;84.60;;;;;;5073275;28;20072;-13
2023/01/14 06:23:55;;;;;;;55.53;23.92;;;-0.60;84.70;;;;;;5073009;28;20473;-14
2023/01/14 06:26:27;;;;;;;55.50;24.35;;;-0.50;84.70;;;;;;5071736;28;20030;-13
2023/01/14 06:29:05;;;;;;;46.53;19.92;;;-0.50;84.60;;;;;;5073033;28;20037;-13
2023/01/14 06:31:31;;;;;;;60.00;26.65;;;-0.60;84.60;;;;;;5073353;28;20073;-13
2023/01/14 06:33:57;;;;;;;60.45;26.83;;;-0.60;84.50;;;;;;5073026;28;20051;-13
2023/01/14 06:36:24;;;;;;;46.40;23.20;;;-0.60;84.60;;;;;;5073273;28;20028;-13
2023/01/14 06:38:50;;;;;;;44.95;22.02;;;-0.60;84.50;;;;;;5072737;28;20029;-13
2023/01/14 06:41:16;;;;;;;34.95;17.55;;;-0.50;84.40;;;;;;5073064;28;20028;-13
2023/01/14 06:43:42;;;;;;;42.63;22.38;;;-0.60;84.40;;;;;;5072700;28;20029;-13
2023/01/14 06:46:09;;;;;;;41.47;21.10;;;-0.50;84.40;;;;;;5072789;28;20020;-13
2023/01/14 06:48:35;;;;;;;44.88;24.95;;;-0.50;84.40;;;;;;5072682;28;20080;-13
2023/01/14 06:51:16;;;;;;;49.97;26.25;;;-0.60;84.40;;;;;;5072872;28;20032;-13
2023/01/14 06:53:42;;;;;;;51.45;27.95;;;-0.60;84.40;;;;;;5072692;28;20099;-13
2023/01/14 06:56:13;;;;;;;65.63;36.58;;;-0.60;84.50;;;;;;5072838;28;20223;-13
2023/01/14 06:58:39;;;;;;;53.88;30.42;;;-0.60;84.60;;;;;;5071400;28;20495;-14
2023/01/14 07:01:06;;;;;;;56.92;30.80;;;-0.60;84.60;;;;;;5072584;28;20021;-13
2023/01/14 07:03:32;;;;;;;45.80;26.08;;;-0.50;84.60;;;;;;5072406;28;20048;-13
2023/01/14 07:06:01;;;;;;;44.83;23.50;;;-0.50;84.60;;;;;;5072528;28;20032;-13
2023/01/14 07:08:27;;;;;;;45.53;25.60;;;-0.50;84.50;;;;;;5072594;28;20038;-14
2023/01/14 07:10:53;;;;;;;43.47;24.15;;;-0.50;84.50;;;;;;5072564;28;20047;-14
2023/01/14 07:13:21;;;;;;;45.42;27.20;;;-0.50;84.50;;;;;;5072828;28;20119;-13
2023/01/14 07:15:47;;;;;;;40.30;22.63;;;-0.40;84.50;;;;;;5075114;28;20029;-13
2023/01/14 07:18:14;;;;;;;35.67;21.90;;;-0.40;84.60;;;;;;5075123;28;20078;-13
2023/01/14 07:20:41;;;;;;;43.78;24.88;;;-0.40;84.60;;;;;;5076515;28;20057;-13
2023/01/14 07:23:08;;;;;;;38.38;22.05;;;-0.30;84.70;;;;;;5076373;28;20112;-14
2023/01/14 07:25:35;;;;;;;53.33;27.90;;;-0.30;84.70;;;;;;5076213;28;20496;-14
2023/01/14 07:28:02;;;;;;;61.60;31.42;;;-0.20;84.70;;;;;;5076341;28;20059;-13
2023/01/14 07:30:27;;;;;;;44.65;23.27;;;-0.20;84.70;;;;;;5076379;28;20023;-13
2023/01/14 07:32:56;;;;;;;38.17;23.10;;;0.00;84.60;;;;;;5076255;28;20032;-13
2023/01/14 07:35:22;;;;;;;53.50;25.95;;;0.00;84.70;;;;;;5076225;28;20539;-13
2023/01/14 07:37:47;;;;;;;44.92;27.17;;;0.10;84.60;;;;;;5076230;28;20020;-13
2023/01/14 07:40:14;;;;;;;50.15;26.88;;;0.20;84.30;;;;;;5076469;28;20021;-13
2023/01/14 07:42:39;;;;;;;56.85;32.08;;;0.40;84.50;;;;;;5076346;28;20067;-13
2023/01/14 07:45:06;;;;;;;59.03;29.27;;;0.50;84.50;;;;;;5075971;28;20060;-13
2023/01/14 07:47:32;;;;;;;58.72;32.88;;;0.60;84.40;;;;;;5075865;28;20480;-14
2023/01/14 07:49:58;;;;;;;56.40;33.67;;;0.60;84.20;;;;;;5076204;28;20037;-13
2023/01/14 07:52:24;;;;;;;61.22;33.33;;;0.60;84.00;;;;;;5076213;28;20102;-13
2023/01/14 07:54:50;;;;;;;39.95;24.05;;;0.50;84.00;;;;;;5075666;28;20396;-13
2023/01/14 07:57:16;;;;;;;53.30;27.88;;;0.60;84.10;;;;;;5076081;28;20021;-13
2023/01/14 07:59:42;;;;;;;59.88;32.47;;;0.60;84.20;;;;;;5075951;28;20029;-13
2023/01/14 08:02:11;;;;;;;58.95;30.52;;;0.60;84.40;;;;;;5075875;28;20028;-14
2023/01/14 08:04:37;;;;;;;54.88;32.25;;;0.70;84.50;;;;;;5075682;28;20036;-13
2023/01/14 08:07:07;;;;;;;42.70;25.35;;;0.80;84.50;;;;;;5075413;28;20032;-14
2023/01/14 08:09:34;;;;;;;37.67;22.48;;;0.80;84.40;;;;;;5075553;28;20052;-14
2023/01/14 08:12:00;;;;;;;52.97;28.17;;;0.90;84.30;;;;;;5075461;28;20392;-14
2023/01/14 08:14:26;;;;;;;45.05;24.73;;;0.90;84.20;;;;;;5075471;28;20089;-13
2023/01/14 08:16:52;;;;;;;50.45;27.25;;;1.00;84.20;;;;;;5075239;28;20024;-14
2023/01/14 08:19:18;;;;;;;41.60;21.83;;;1.10;84.20;;;;;;5075047;28;20115;-14
2023/01/14 08:21:44;;;;;;;52.03;28.33;;;1.20;84.20;;;;;;5075205;28;20094;-13
2023/01/14 08:24:10;;;;;;;61.40;34.20;;;1.30;84.10;;;;;;5075403;28;20029;-14
2023/01/14 08:26:36;;;;;;;67.22;35.92;;;1.40;84.20;;;;;;5074922;28;20082;-13
2023/01/14 08:29:02;;;;;;;73.82;40.45;;;1.50;84.20;;;;;;5075256;28;20024;-14
2023/01/14 08:31:28;;;;;;;70.60;40.63;;;1.60;84.20;;;;;;5075449;28;20456;-14
2023/01/14 08:33:55;;;;;;;71.38;40.42;;;1.70;84.00;;;;;;5074860;28;20024;-14
2023/01/14 08:36:21;;;;;;;77.20;42.10;;;1.80;84.00;;;;;;5075006;28;20081;-15
2023/01/14 08:38:51;;;;;;;91.35;46.40;;;1.80;83.80;;;;;;5075042;28;20024;-15
2023/01/14 08:41:17;;;;;;;80.90;43.92;;;2.00;83.70;;;;;;5075048;28;20039;-15
2023/01/14 08:43:48;;;;;;;83.38;44.85;;;2.10;84.00;;;;;;5075083;28;20021;-14
2023/01/14 08:46:15;;;;;;;71.05;39.17;;;2.30;83.80;;;;;;5074881;28;20115;-15
2023/01/14 08:48:41;;;;;;;68.70;40.33;;;2.50;83.60;;;;;;5074969;28;20024;-14
2023/01/14 08:51:09;;;;;;;70.47;39.55;;;2.60;83.60;;;;;;5074817;28;20032;-14
2023/01/14 08:53:37;;;;;;;61.75;35.17;;;2.80;83.70;;;;;;5074946;28;20099;-16
2023/01/14 08:56:05;;;;;;;65.78;35.47;;;3.00;83.50;;;;;;5075021;28;20038;-14
2023/01/14 08:58:32;;;;;;;56.15;33.05;;;3.20;83.60;;;;;;5074904;28;20130;-15
2023/01/14 09:01:00;;;;;;;51.85;30.27;;;3.50;83.60;;;;;;5074427;28;20056;-15
2023/01/14 09:03:29;;;;;;;46.63;27.45;;;3.70;83.40;;;;;;5074637;28;20082;-14
2023/01/14 09:06:00;;;;;;;44.58;25.75;;;3.90;83.40;;;;;;5074462;28;20468;-14
2023/01/14 09:17:04;;;;;;;40.80;24.88;;;4.40;83.00;;;;;;5074959;28;20039;-13
2023/01/14 09:17:09;;;;;;;37.20;22.88;;;4.90;82.10;;;;;;5074385;28;20038;-13
2023/01/14 09:19:36;;;;;;;37.78;22.80;;;5.20;81.80;;;;;;5074151;28;20020;-13
2023/01/14 09:22:03;;;;;;;40.35;20.52;;;5.50;81.70;;;;;;5074023;28;20044;-13
2023/01/14 09:24:29;;;;;;;31.10;20.55;;;5.70;81.30;;;;;;5074309;28;20039;-13
2023/01/14 09:26:55;;;;;;;34.35;20.52;;;5.90;80.80;;;;;;5072552;28;20463;-12
2023/01/14 09:29:21;;;;;;;28.40;16.90;;;6.20;80.60;;;;;;5074260;28;20020;-14
2023/01/14 09:31:47;;;;;;;30.52;20.38;;;6.40;80.10;;;;;;5073988;28;20388;-14
2023/01/14 09:34:12;;;;;;;30.10;18.85;;;6.60;79.90;;;;;;5073799;28;20075;-13
2023/01/14 09:36:38;;;;;;;27.80;16.90;;;6.90;79.30;;;;;;5074072;28;20032;-13
2023/01/14 09:39:04;;;;;;;26.02;17.20;;;7.10;78.90;;;;;;5072755;28;20484;-13
2023/01/14 09:41:36;;;;;;;26.25;16.60;;;7.30;78.50;;;;;;5073755;28;20029;-14
2023/01/14 09:44:05;;;;;;;22.73;14.35;;;7.50;77.80;;;;;;5073609;28;20036;-14
2023/01/14 09:46:32;;;;;;;37.13;20.38;;;7.60;77.80;;;;;;5074034;28;20020;-13
2023/01/14 09:49:01;;;;;;;48.25;24.80;;;7.80;77.30;;;;;;5073599;28;20028;-13
2023/01/14 09:51:54;;;;;;;47.00;25.20;;;7.90;77.00;;;;;;5073841;28;20032;-13
2023/01/14 09:54:26;;;;;;;29.60;18.67;;;8.00;77.10;;;;;;5073649;28;20051;-13
2023/01/14 09:57:17;;;;;;;23.42;15.52;;;8.20;77.20;;;;;;5073404;28;20046;-13
2023/01/14 10:00:26;;;;;;;26.63;16.27;;;8.40;77.50;;;;;;5073921;28;20112;-13
2023/01/14 10:03:21;;;;;;;23.30;15.90;;;8.60;77.80;;;;;;5069670;28;20107;-13
2023/01/14 10:06:04;;;;;;;25.15;16.00;;;8.90;77.90;;;;;;5073671;28;20124;-14
2023/01/14 10:08:43;;;;;;;24.27;14.57;;;9.30;77.50;;;;;;5073251;28;20059;-12
2023/01/14 10:11:11;;;;;;;26.65;17.48;;;9.60;77.70;;;;;;5073273;28;20029;-12
2023/01/14 10:13:43;;;;;;;21.27;15.00;;;9.90;76.80;;;;;;5073311;28;20415;-12
2023/01/14 10:16:28;;;;;;;19.40;13.63;;;10.10;76.90;;;;;;5073191;28;20033;-13
2023/01/14 10:18:59;;;;;;;22.80;13.43;;;10.20;77.20;;;;;;5073086;28;20027;-13
2023/01/14 10:21:36;;;;;;;21.42;13.65;;;10.50;77.30;;;;;;5072919;28;20052;-13
2023/01/14 10:24:02;;;;;;;23.17;14.02;;;10.80;76.20;;;;;;5072900;28;20400;-13
2023/01/14 10:26:31;;;;;;;21.92;13.93;;;10.90;76.40;;;;;;5073410;28;20135;-13
2023/01/14 10:29:03;;;;;;;22.58;14.35;;;11.20;75.50;;;;;;5072642;28;20020;-13
2023/01/14 10:31:32;;;;;;;25.40;15.52;;;11.50;74.90;;;;;;5073579;28;20024;-13
2023/01/14 10:33:58;;;;;;;22.92;14.70;;;11.80;74.90;;;;;;5072980;28;20490;-13
2023/01/14 10:36:29;;;;;;;22.92;13.95;;;12.00;73.70;;;;;;5072931;28;20033;-13
2023/01/14 10:38:57;;;;;;;20.52;13.68;;;12.20;74.20;;;;;;5072964;28;20024;-13
2023/01/14 10:44:27;;;;;;;23.17;13.85;;;12.30;72.80;;;;;;5073014;28;20404;-14
2023/01/14 10:46:58;;;;;;;22.83;13.70;;;12.30;73.30;;;;;;5072570;28;20069;-13
2023/01/14 10:49:37;;;;;;;19.40;12.77;;;12.40;72.60;;;;;;5072523;28;20526;-12
2023/01/14 10:52:28;;;;;;;15.75;11.00;;;12.50;71.90;;;;;;5072820;28;20206;-12
2023/01/14 10:55:11;;;;;;;16.30;11.82;;;12.60;71.30;;;;;;5072404;28;20487;-13
2023/01/14 10:57:52;;;;;;;18.10;13.20;;;12.80;70.90;;;;;;5072550;28;20025;-13
2023/01/14 11:00:47;;;;;;;17.50;13.25;;;13.00;70.50;;;;;;5072788;28;20032;-13
2023/01/14 11:03:28;;;;;;;22.20;13.38;;;13.20;69.80;;;;;;5073079;28;20123;-13
2023/01/14 11:06:12;;;;;;;20.58;13.77;;;13.30;69.10;;;;;;5072689;28;20056;-13
2023/01/14 11:08:42;;;;;;;20.42;14.55;;;13.30;68.40;;;;;;5072665;28;20325;-13
2023/01/14 11:11:11;;;;;;;20.92;14.90;;;13.40;68.70;;;;;;5072135;28;20025;-13
2023/01/14 11:13:44;;;;;;;14.55;10.27;;;13.50;68.10;;;;;;5072289;28;20039;-13
2023/01/14 11:16:24;;;;;;;15.88;11.07;;;13.70;67.30;;;;;;5072546;28;20031;-12
2023/01/14 11:18:56;;;;;;;17.10;11.25;;;13.70;65.60;;;;;;5072043;28;20037;-13
2023/01/14 11:21:24;;;;;;;17.80;11.85;;;13.80;66.30;;;;;;5072092;28;20050;-12
2023/01/14 11:24:07;;;;;;;16.83;11.38;;;13.90;66.10;;;;;;5072196;28;20042;-13
2023/01/14 11:26:36;;;;;;;13.20;9.20;;;14.00;64.80;;;;;;5072237;28;20051;-13
2023/01/14 11:29:08;;;;;;;14.63;9.70;;;14.00;64.20;;;;;;5071945;28;20259;-13
2023/01/14 11:31:36;;;;;;;14.07;8.85;;;14.00;64.70;;;;;;5072185;28;20052;-13
2023/01/14 11:34:02;;;;;;;14.25;8.30;;;13.90;64.20;;;;;;5071969;28;20059;-13
2023/01/14 11:36:32;;;;;;;15.25;10.23;;;13.90;64.30;;;;;;5072157;28;20025;-13
2023/01/14 11:39:00;;;;;;;12.80;9.00;;;14.10;64.80;;;;;;5072232;28;20056;-13
2023/01/14 11:41:38;;;;;;;14.52;10.73;;;14.40;64.80;;;;;;5072322;28;20032;-13
2023/01/14 11:44:09;;;;;;;14.43;10.68;;;14.70;64.10;;;;;;5072018;28;20032;-13
2023/01/14 11:46:38;;;;;;;16.17;10.18;;;14.80;63.50;;;;;;5072600;28;20048;-13
2023/01/14 11:49:17;;;;;;;16.30;10.35;;;14.90;62.80;;;;;;5071648;28;20415;-13
2023/01/14 11:52:04;;;;;;;14.40;10.65;;;15.00;62.80;;;;;;5072195;28;20422;-12
2023/01/14 11:54:38;;;;;;;16.17;9.93;;;15.20;62.70;;;;;;5072265;28;20104;-13
2023/01/14 11:57:05;;;;;;;12.68;8.70;;;15.40;62.20;;;;;;5071747;28;20036;-12
2023/01/14 11:59:37;;;;;;;12.20;9.05;;;15.60;61.10;;;;;;5072181;28;20025;-11
2023/01/14 12:02:23;;;;;;;12.10;8.27;;;15.60;60.70;;;;;;5074209;28;20036;-12
2023/01/14 12:05:14;;;;;;;11.43;7.93;;;15.90;59.60;;;;;;5075234;28;20492;-13
2023/01/14 12:07:57;;;;;;;11.05;7.60;;;16.10;60.80;;;;;;5075840;28;20032;-12
2023/01/14 12:10:43;;;;;;;10.82;7.10;;;16.40;60.10;;;;;;5075846;28;20499;-12
2023/01/14 12:19:20;;;;;;;10.88;8.50;;;17.00;57.30;;;;;;5075510;28;20043;-12
2023/01/14 12:22:15;;;;;;;12.18;8.60;;;17.10;53.80;;;;;;5075207;28;20484;-12
2023/01/14 12:25:05;;;;;;;11.80;8.05;;;17.00;55.40;;;;;;5075265;28;20060;-12
2023/01/14 12:27:46;;;;;;;10.90;7.65;;;17.00;56.10;;;;;;5075547;28;20068;-11
2023/01/14 12:30:12;;;;;;;9.75;7.00;;;17.00;55.40;;;;;;5075534;28;20108;-12
2023/01/14 12:32:39;;;;;;;8.63;6.30;;;16.90;55.30;;;;;;5075643;28;20107;-11
2023/01/14 12:35:13;;;;;;;9.55;6.75;;;16.90;56.40;;;;;;5074782;28;20453;-12
2023/01/14 12:37:53;;;;;;;8.95;6.57;;;16.90;57.10;;;;;;5075427;28;20516;-12
2023/01/14 12:46:18;;;;;;;11.52;7.82;;;17.40;55.80;;;;;;5075200;28;20101;-11
2023/01/14 12:48:45;;;;;;;9.93;6.47;;;17.50;55.70;;;;;;5074744;28;20480;-11
2023/01/14 12:51:19;;;;;;;13.25;8.80;;;17.60;55.70;;;;;;5074743;28;20067;-12
2023/01/14 12:53:49;;;;;;;10.43;7.32;;;17.50;55.10;;;;;;5075123;28;20096;-13
2023/01/14 12:56:26;;;;;;;13.25;7.07;;;17.40;56.00;;;;;;5075041;28;20060;-12
2023/01/14 12:58:59;;;;;;;11.75;7.35;;;17.40;55.90;;;;;;5074849;28;20075;-12
2023/01/14 13:01:51;;;;;;;10.80;7.53;;;17.30;55.70;;;;;;5074879;28;20039;-12
2023/01/14 13:04:34;;;;;;;9.45;6.57;;;17.20;55.80;;;;;;5051998;28;20035;-12
2023/01/14 13:07:04;;;;;;;10.30;7.28;;;17.10;55.60;;;;;;5052351;28;20414;-13
2023/01/14 13:09:45;;;;;;;11.07;7.63;;;17.20;56.20;;;;;;5052702;28;20179;-11
2023/01/14 13:12:29;;;;;;;10.52;7.45;;;17.30;55.50;;;;;;5051672;28;20104;-13
2023/01/14 13:14:59;;;;;;;12.18;6.72;;;17.50;54.90;;;;;;5051916;28;20464;-12
2023/01/14 13:17:32;;;;;;;10.57;7.20;;;17.70;55.40;;;;;;5052180;28;20035;-12
2023/01/14 13:19:59;;;;;;;;;;;18.00;54.10;;;;;;5052437;28;20107;-11
2023/01/14 13:22:41;;;;;;;13.27;8.80;;;18.30;53.70;;;;;;5052059;28;20373;-11
2023/01/14 13:25:08;;;;;;;10.50;7.38;;;18.50;52.00;;;;;;5051675;28;20056;-11
2023/01/14 13:27:34;;;;;;;10.77;7.18;;;18.60;52.40;;;;;;5051974;28;20064;-13
2023/01/14 13:30:18;;;;;;;11.80;7.45;;;18.60;51.80;;;;;;5051958;28;20397;-11
2023/01/14 13:33:00;;;;;;;11.63;7.53;;;18.70;52.90;;;;;;5052222;28;20041;-12